Wetterdaten: Woche 16.07.07 - 22.07.07 (KW29)
Datum Zeit Temperatur Luftfeuchte Luftdruck Niederschlag
16.07.2007 00:00 19,1 C 66 % 0 hPa 0,0 l/m
16.07.2007 01:00 18,5 C 71 % 0 hPa 0,0 l/m
16.07.2007 02:00 18,3 C 70 % 0 hPa 0,0 l/m
16.07.2007 03:00 17,4 C 72 % 0 hPa 0,0 l/m
16.07.2007 04:00 16,4 C 75 % 0 hPa 0,0 l/m
16.07.2007 05:00 15,6 C 80 % 0 hPa 0,0 l/m
16.07.2007 06:00 15,4 C 80 % 0 hPa 0,0 l/m
16.07.2007 07:00 17,8 C 76 % 0 hPa 0,0 l/m
16.07.2007 08:00 21,7 C 54 % 0 hPa 0,0 l/m
16.07.2007 09:00 25,4 C 36 % 0 hPa 0,0 l/m
16.07.2007 10:00 28,2 C 29 % 0 hPa 0,0 l/m
16.07.2007 11:00 30,3 C 22 % 0 hPa 0,0 l/m
16.07.2007 12:00 31,7 C 20 % 0 hPa 0,0 l/m
16.07.2007 13:00 32,6 C 18 % 0 hPa 0,0 l/m
16.07.2007 14:00 33,0 C 18 % 0 hPa 0,0 l/m
16.07.2007 15:00 33,7 C 17 % 0 hPa 0,0 l/m
16.07.2007 16:00 34,3 C 16 % 0 hPa 0,0 l/m
16.07.2007 17:00 34,8 C 16 % 0 hPa 0,0 l/m
16.07.2007 18:00 34,9 C 16 % 0 hPa 0,0 l/m
16.07.2007 19:00 32,7 C 24 % 0 hPa 0,0 l/m
16.07.2007 20:00 26,9 C 32 % 0 hPa 0,0 l/m
16.07.2007 21:00 23,9 C 37 % 0 hPa 0,0 l/m
16.07.2007 22:00 21,5 C 46 % 0 hPa 0,0 l/m
16.07.2007 23:00 20,2 C 53 % 0 hPa 0,0 l/m
17.07.2007 00:00 20,5 C 43 % 0 hPa 0,0 l/m
17.07.2007 01:00 21,6 C 43 % 0 hPa 0,0 l/m
17.07.2007 02:00 19,9 C 49 % 0 hPa 0,0 l/m
17.07.2007 03:00 18,4 C 59 % 0 hPa 0,0 l/m
17.07.2007 04:00 17,4 C 66 % 0 hPa 0,0 l/m
17.07.2007 05:00 16,6 C 72 % 0 hPa 0,0 l/m
17.07.2007 06:00 16,2 C 79 % 0 hPa 0,0 l/m
17.07.2007 07:00 18,4 C 72 % 0 hPa 0,0 l/m
17.07.2007 08:00 21,5 C 51 % 0 hPa 0,0 l/m
17.07.2007 09:00 23,5 C 40 % 0 hPa 0,0 l/m
17.07.2007 10:00 24,8 C 35 % 0 hPa 0,0 l/m
17.07.2007 11:00 25,9 C 33 % 0 hPa 0,0 l/m
17.07.2007 12:00 27,0 C 31 % 0 hPa 0,0 l/m
17.07.2007 13:00 27,8 C 31 % 0 hPa 0,0 l/m
17.07.2007 14:00 28,2 C 30 % 0 hPa 0,0 l/m
17.07.2007 15:00 28,3 C 30 % 0 hPa 0,0 l/m
17.07.2007 16:00 28,5 C 30 % 0 hPa 0,0 l/m
17.07.2007 17:00 29,3 C 29 % 0 hPa 0,0 l/m
17.07.2007 18:00 28,7 C 30 % 0 hPa 0,0 l/m
17.07.2007 19:00 27,6 C 33 % 0 hPa 0,0 l/m
17.07.2007 20:00 26,6 C 37 % 0 hPa 0,0 l/m
17.07.2007 21:00 24,0 C 46 % 0 hPa 0,0 l/m
17.07.2007 22:00 22,7 C 50 % 0 hPa 0,0 l/m
17.07.2007 23:00 21,9 C 57 % 0 hPa 0,0 l/m
18.07.2007 00:00 21,2 C 61 % 0 hPa 0,0 l/m
18.07.2007 01:00 20,2 C 67 % 0 hPa 0,0 l/m
18.07.2007 02:00 19,1 C 73 % 0 hPa 0,0 l/m
18.07.2007 03:00 18,7 C 75 % 0 hPa 0,0 l/m
18.07.2007 04:00 18,5 C 76 % 0 hPa 0,0 l/m
18.07.2007 05:00 18,1 C 74 % 0 hPa 0,0 l/m
18.07.2007 06:00 17,8 C 73 % 0 hPa 0,0 l/m
18.07.2007 07:00 18,2 C 73 % 0 hPa 0,0 l/m
18.07.2007 08:00 19,8 C 65 % 0 hPa 0,0 l/m
18.07.2007 09:00 21,4 C 57 % 0 hPa 0,0 l/m
18.07.2007 10:00 22,8 C 51 % 0 hPa 0,0 l/m
18.07.2007 11:00 24,4 C 45 % 0 hPa 0,0 l/m
18.07.2007 12:00 24,9 C 43 % 0 hPa 0,0 l/m
18.07.2007 13:00 25,8 C 42 % 0 hPa 0,0 l/m
18.07.2007 14:00 26,9 C 39 % 0 hPa 0,0 l/m
18.07.2007 15:00 28,0 C 37 % 0 hPa 0,0 l/m
18.07.2007 16:00 28,4 C 34 % 0 hPa 0,0 l/m
18.07.2007 17:00 27,8 C 35 % 0 hPa 0,0 l/m
18.07.2007 18:00 27,1 C 37 % 0 hPa 0,0 l/m
18.07.2007 19:00 26,3 C 41 % 0 hPa 0,0 l/m
18.07.2007 20:00 25,0 C 46 % 0 hPa 0,0 l/m
18.07.2007 21:00 23,6 C 56 % 0 hPa 0,0 l/m
18.07.2007 22:00 22,7 C 63 % 0 hPa 0,0 l/m
18.07.2007 23:00 21,4 C 71 % 0 hPa 0,0 l/m
19.07.2007 00:00 20,7 C 73 % 0 hPa 0,0 l/m
19.07.2007 01:00 20,2 C 75 % 0 hPa 0,0 l/m
19.07.2007 02:00 20,2 C 74 % 0 hPa 0,0 l/m
19.07.2007 03:00 20,4 C 72 % 0 hPa 0,0 l/m
19.07.2007 04:00 19,9 C 74 % 0 hPa 0,0 l/m
19.07.2007 05:00 19,6 C 76 % 0 hPa 0,0 l/m
19.07.2007 06:00 19,4 C 78 % 0 hPa 0,0 l/m
19.07.2007 07:00 20,1 C 75 % 0 hPa 0,0 l/m
19.07.2007 08:00 21,8 C 64 % 0 hPa 0,0 l/m
19.07.2007 09:00 23,4 C 56 % 0 hPa 0,0 l/m
19.07.2007 10:00 25,1 C 50 % 0 hPa 0,0 l/m
19.07.2007 11:00 26,7 C 45 % 0 hPa 0,0 l/m
19.07.2007 12:00 27,6 C 44 % 0 hPa 0,0 l/m
19.07.2007 13:00 27,7 C 43 % 0 hPa 0,0 l/m
19.07.2007 14:00 27,5 C 44 % 0 hPa 0,0 l/m
19.07.2007 15:00 28,8 C 35 % 0 hPa 0,0 l/m
19.07.2007 16:00 29,7 C 31 % 0 hPa 0,0 l/m
19.07.2007 17:00 30,1 C 30 % 0 hPa 0,0 l/m
19.07.2007 18:00 28,6 C 33 % 0 hPa 0,0 l/m
19.07.2007 19:00 26,5 C 39 % 0 hPa 0,0 l/m
19.07.2007 20:00 24,9 C 46 % 0 hPa 0,0 l/m
19.07.2007 21:00 23,3 C 54 % 0 hPa 0,0 l/m
19.07.2007 22:00 22,0 C 62 % 0 hPa 0,0 l/m
19.07.2007 23:00 21,0 C 69 % 0 hPa 0,0 l/m
20.07.2007 00:00 20,6 C 73 % 0 hPa 0,0 l/m
20.07.2007 01:00 20,5 C 75 % 0 hPa 0,0 l/m
20.07.2007 02:00 20,6 C 73 % 0 hPa 0,0 l/m
20.07.2007 03:00 20,0 C 74 % 0 hPa 0,0 l/m
20.07.2007 04:00 19,3 C 83 % 0 hPa 0,0 l/m
20.07.2007 05:00 18,9 C 87 % 0 hPa 0,0 l/m
20.07.2007 06:00 18,6 C 88 % 0 hPa 0,0 l/m
20.07.2007 07:00 19,3 C 87 % 0 hPa 0,0 l/m
20.07.2007 08:00 21,1 C 76 % 0 hPa 0,0 l/m
20.07.2007 09:00 23,6 C 63 % 0 hPa 0,0 l/m
20.07.2007 10:00 26,0 C 53 % 0 hPa 0,0 l/m
20.07.2007 11:00 27,9 C 45 % 0 hPa 0,0 l/m
20.07.2007 12:00 29,4 C 39 % 0 hPa 0,0 l/m
20.07.2007 13:00 30,9 C 32 % 0 hPa 0,0 l/m
20.07.2007 14:00 30,3 C 32 % 0 hPa 0,0 l/m
20.07.2007 15:00 27,6 C 41 % 0 hPa 0,0 l/m
20.07.2007 16:00 27,4 C 41 % 0 hPa 0,0 l/m
20.07.2007 17:00 28,2 C 36 % 0 hPa 0,0 l/m
20.07.2007 18:00 28,1 C 36 % 0 hPa 0,0 l/m
20.07.2007 19:00 25,8 C 38 % 0 hPa 0,0 l/m
20.07.2007 20:00 23,5 C 42 % 0 hPa 0,0 l/m
20.07.2007 21:00 22,2 C 50 % 0 hPa 0,0 l/m
20.07.2007 22:00 20,8 C 65 % 0 hPa 0,0 l/m
20.07.2007 23:00 19,5 C 78 % 0 hPa 0,0 l/m
21.07.2007 00:00 18,9 C 84 % 0 hPa 0,0 l/m
21.07.2007 01:00 18,6 C 88 % 0 hPa 0,0 l/m
21.07.2007 02:00 18,4 C 88 % 0 hPa 0,0 l/m
21.07.2007 03:00 18,1 C 87 % 0 hPa 0,0 l/m
21.07.2007 04:00 17,6 C 89 % 0 hPa 0,0 l/m
21.07.2007 05:00 16,9 C 91 % 0 hPa 0,0 l/m
21.07.2007 06:00 16,8 C 92 % 0 hPa 0,0 l/m
21.07.2007 07:00 17,2 C 92 % 0 hPa 0,0 l/m
21.07.2007 08:00 18,7 C 77 % 0 hPa 0,0 l/m
21.07.2007 09:00 19,3 C 73 % 0 hPa 0,0 l/m
21.07.2007 10:00 20,2 C 64 % 0 hPa 0,0 l/m
21.07.2007 11:00 20,5 C 62 % 0 hPa 0,0 l/m
21.07.2007 12:00 20,7 C 60 % 0 hPa 0,0 l/m
21.07.2007 13:00 21,2 C 60 % 0 hPa 0,0 l/m
21.07.2007 14:00 22,1 C 56 % 0 hPa 0,0 l/m
21.07.2007 15:00 22,6 C 56 % 0 hPa 0,0 l/m
21.07.2007 16:00 23,1 C 53 % 0 hPa 0,0 l/m
21.07.2007 17:00 22,9 C 54 % 0 hPa 0,0 l/m
21.07.2007 18:00 22,2 C 59 % 0 hPa 0,0 l/m
21.07.2007 19:00 20,7 C 66 % 0 hPa 0,0 l/m
21.07.2007 20:00 18,8 C 75 % 0 hPa 7,0 l/m
21.07.2007 21:00 17,0 C 89 % 0 hPa 0,0 l/m
21.07.2007 22:00 16,4 C 92 % 0 hPa 2,0 l/m
21.07.2007 23:00 16,2 C 93 % 0 hPa 0,0 l/m
22.07.2007 00:00 16,3 C 94 % 0 hPa 0,0 l/m
22.07.2007 01:00 16,1 C 95 % 0 hPa 0,0 l/m
22.07.2007 02:00 15,5 C 94 % 0 hPa 2,0 l/m
22.07.2007 03:00 14,8 C 94 % 0 hPa 2,0 l/m
22.07.2007 04:00 14,3 C 94 % 0 hPa 1,0 l/m
22.07.2007 05:00 13,6 C 95 % 0 hPa 0,0 l/m
22.07.2007 06:00 13,3 C 95 % 0 hPa 1,0 l/m
22.07.2007 07:00 13,8 C 96 % 0 hPa 0,0 l/m
22.07.2007 08:00 14,8 C 97 % 0 hPa 0,0 l/m
22.07.2007 09:00 15,3 C 94 % 0 hPa 0,0 l/m
22.07.2007 10:00 15,7 C 87 % 0 hPa 0,0 l/m
22.07.2007 11:00 17,2 C 76 % 0 hPa 0,0 l/m
22.07.2007 12:00 18,6 C 59 % 0 hPa 0,0 l/m
22.07.2007 13:00 18,6 C 53 % 0 hPa 0,0 l/m
22.07.2007 14:00 20,3 C 47 % 0 hPa 0,0 l/m
22.07.2007 15:00 21,4 C 40 % 0 hPa 0,0 l/m
22.07.2007 16:00 21,3 C 40 % 0 hPa 0,0 l/m
22.07.2007 17:00 21,9 C 35 % 0 hPa 0,0 l/m
22.07.2007 18:00 21,7 C 35 % 0 hPa 0,0 l/m
22.07.2007 19:00 20,0 C 43 % 0 hPa 0,0 l/m
22.07.2007 20:00 18,5 C 54 % 0 hPa 0,0 l/m
22.07.2007 21:00 16,2 C 65 % 0 hPa 0,0 l/m
22.07.2007 22:00 14,7 C 73 % 0 hPa 0,0 l/m
22.07.2007 23:00 13,7 C 78 % 0 hPa 0,0 l/m
Min-Datum _ 22.07.07 16.07.07 16.07.07 -
_ Min-Zeit 06:16 16:03 00:00 -
Minimum _ 13,3 C 16 % 0 hPa -
Max-Datum _ 16.07.07 22.07.07 16.07.07 21.07.07
_ Max-Zeit 18:32 07:26 00:00 20:35
Maximum _ 35,2 C 97 % 0 hPa 7,0 l/m
Durchschnitt _ 22,2 C 58 % 0 hPa #15,0 l/m

Durchschnitt Minimum Temp.21,7 C
Durchschnitt Maximum Temp.22,8 C